sensor_id;sensor_type;location;lat;lon;timestamp;P1;durP1;ratioP1;P2;durP2;ratioP2
40314;SDS011;26021;45.640;11.302;2022-12-07T00:00:29;15.85;;;8.93;;
40314;SDS011;26021;45.640;11.302;2022-12-07T00:02:54;21.00;;;10.77;;
40314;SDS011;26021;45.640;11.302;2022-12-07T00:05:20;19.15;;;10.15;;
40314;SDS011;26021;45.640;11.302;2022-12-07T00:07:45;17.25;;;8.88;;
40314;SDS011;26021;45.640;11.302;2022-12-07T00:10:11;15.23;;;8.38;;
40314;SDS011;26021;45.640;11.302;2022-12-07T00:12:36;9.77;;;6.28;;
40314;SDS011;26021;45.640;11.302;2022-12-07T00:15:02;9.82;;;5.97;;
40314;SDS011;26021;45.640;11.302;2022-12-07T00:17:27;9.00;;;6.05;;
40314;SDS011;26021;45.640;11.302;2022-12-07T00:19:53;9.52;;;5.28;;
40314;SDS011;26021;45.640;11.302;2022-12-07T00:22:18;9.48;;;5.80;;
40314;SDS011;26021;45.640;11.302;2022-12-07T00:24:44;8.73;;;5.55;;
40314;SDS011;26021;45.640;11.302;2022-12-07T00:27:09;19.58;;;8.88;;
40314;SDS011;26021;45.640;11.302;2022-12-07T00:29:34;13.55;;;8.18;;
40314;SDS011;26021;45.640;11.302;2022-12-07T00:32:02;15.15;;;7.43;;
40314;SDS011;26021;45.640;11.302;2022-12-07T00:34:27;14.63;;;8.10;;
40314;SDS011;26021;45.640;11.302;2022-12-07T00:36:53;16.52;;;7.57;;
40314;SDS011;26021;45.640;11.302;2022-12-07T00:39:18;10.25;;;5.88;;
40314;SDS011;26021;45.640;11.302;2022-12-07T00:41:44;9.23;;;4.70;;
40314;SDS011;26021;45.640;11.302;2022-12-07T00:44:09;7.68;;;4.45;;
40314;SDS011;26021;45.640;11.302;2022-12-07T00:46:35;5.75;;;4.05;;
40314;SDS011;26021;45.640;11.302;2022-12-07T00:49:00;5.63;;;3.88;;
40314;SDS011;26021;45.640;11.302;2022-12-07T00:51:25;7.15;;;3.40;;
40314;SDS011;26021;45.640;11.302;2022-12-07T00:53:51;5.22;;;3.75;;
40314;SDS011;26021;45.640;11.302;2022-12-07T00:56:18;7.65;;;4.05;;
40314;SDS011;26021;45.640;11.302;2022-12-07T00:58:48;6.85;;;4.05;;
40314;SDS011;26021;45.640;11.302;2022-12-07T01:01:15;6.55;;;4.00;;
40314;SDS011;26021;45.640;11.302;2022-12-07T01:03:40;6.75;;;4.07;;
40314;SDS011;26021;45.640;11.302;2022-12-07T01:06:06;6.82;;;4.10;;
40314;SDS011;26021;45.640;11.302;2022-12-07T01:08:31;6.50;;;3.83;;
40314;SDS011;26021;45.640;11.302;2022-12-07T01:11:01;5.95;;;3.67;;
40314;SDS011;26021;45.640;11.302;2022-12-07T01:13:29;5.18;;;3.92;;
40314;SDS011;26021;45.640;11.302;2022-12-07T01:15:56;4.93;;;3.72;;
40314;SDS011;26021;45.640;11.302;2022-12-07T01:18:26;7.22;;;3.60;;
40314;SDS011;26021;45.640;11.302;2022-12-07T01:23:29;7.40;;;4.03;;
40314;SDS011;26021;45.640;11.302;2022-12-07T01:25:58;4.45;;;3.00;;
40314;SDS011;26021;45.640;11.302;2022-12-07T01:28:25;5.57;;;3.28;;
40314;SDS011;26021;45.640;11.302;2022-12-07T01:30:58;18.83;;;9.13;;
40314;SDS011;26021;45.640;11.302;2022-12-07T01:33:26;25.15;;;12.85;;
40314;SDS011;26021;45.640;11.302;2022-12-07T01:35:53;16.70;;;8.80;;
40314;SDS011;26021;45.640;11.302;2022-12-07T01:38:19;11.50;;;5.70;;
40314;SDS011;26021;45.640;11.302;2022-12-07T01:40:44;6.90;;;4.15;;
40314;SDS011;26021;45.640;11.302;2022-12-07T01:43:14;5.55;;;3.85;;
40314;SDS011;26021;45.640;11.302;2022-12-07T01:45:43;5.93;;;3.47;;
40314;SDS011;26021;45.640;11.302;2022-12-07T01:48:09;4.15;;;3.40;;
40314;SDS011;26021;45.640;11.302;2022-12-07T01:50:38;7.38;;;3.63;;
40314;SDS011;26021;45.640;11.302;2022-12-07T01:53:06;8.48;;;4.45;;
40314;SDS011;26021;45.640;11.302;2022-12-07T01:55:34;7.82;;;4.38;;
40314;SDS011;26021;45.640;11.302;2022-12-07T01:58:02;8.25;;;4.90;;
40314;SDS011;26021;45.640;11.302;2022-12-07T02:00:28;9.48;;;5.10;;
40314;SDS011;26021;45.640;11.302;2022-12-07T02:02:59;9.00;;;5.30;;
40314;SDS011;26021;45.640;11.302;2022-12-07T02:05:38;7.38;;;5.30;;
40314;SDS011;26021;45.640;11.302;2022-12-07T02:08:06;8.40;;;5.10;;
40314;SDS011;26021;45.640;11.302;2022-12-07T02:10:33;7.65;;;5.45;;
40314;SDS011;26021;45.640;11.302;2022-12-07T02:13:41;14.60;;;8.13;;
40314;SDS011;26021;45.640;11.302;2022-12-07T02:24:20;9.95;;;5.88;;
40314;SDS011;26021;45.640;11.302;2022-12-07T02:27:16;10.48;;;6.43;;
40314;SDS011;26021;45.640;11.302;2022-12-07T02:30:06;8.65;;;6.05;;
40314;SDS011;26021;45.640;11.302;2022-12-07T02:43:42;9.95;;;7.30;;
40314;SDS011;26021;45.640;11.302;2022-12-07T02:46:12;10.52;;;7.32;;
40314;SDS011;26021;45.640;11.302;2022-12-07T02:48:42;11.18;;;7.30;;
40314;SDS011;26021;45.640;11.302;2022-12-07T02:51:08;11.85;;;7.93;;
40314;SDS011;26021;45.640;11.302;2022-12-07T02:53:38;12.15;;;8.27;;
40314;SDS011;26021;45.640;11.302;2022-12-07T03:04:53;12.55;;;7.38;;
40314;SDS011;26021;45.640;11.302;2022-12-07T03:10:27;11.20;;;7.80;;
40314;SDS011;26021;45.640;11.302;2022-12-07T03:18:32;13.27;;;8.40;;
40314;SDS011;26021;45.640;11.302;2022-12-07T03:21:04;9.07;;;6.60;;
40314;SDS011;26021;45.640;11.302;2022-12-07T03:23:34;11.10;;;7.60;;
40314;SDS011;26021;45.640;11.302;2022-12-07T03:26:02;9.60;;;7.00;;
40314;SDS011;26021;45.640;11.302;2022-12-07T03:28:32;12.45;;;7.47;;
40314;SDS011;26021;45.640;11.302;2022-12-07T03:31:04;10.65;;;7.65;;
40314;SDS011;26021;45.640;11.302;2022-12-07T03:33:49;10.02;;;7.13;;
40314;SDS011;26021;45.640;11.302;2022-12-07T03:36:26;10.00;;;7.05;;
40314;SDS011;26021;45.640;11.302;2022-12-07T03:39:00;10.25;;;6.97;;
40314;SDS011;26021;45.640;11.302;2022-12-07T03:41:34;10.05;;;7.53;;
40314;SDS011;26021;45.640;11.302;2022-12-07T03:44:03;11.85;;;7.40;;
40314;SDS011;26021;45.640;11.302;2022-12-07T03:46:44;9.25;;;6.60;;
40314;SDS011;26021;45.640;11.302;2022-12-07T03:54:58;7.72;;;4.78;;
40314;SDS011;26021;45.640;11.302;2022-12-07T03:57:44;9.40;;;6.45;;
40314;SDS011;26021;45.640;11.302;2022-12-07T04:00:12;11.30;;;7.80;;
40314;SDS011;26021;45.640;11.302;2022-12-07T04:02:39;11.38;;;7.88;;
40314;SDS011;26021;45.640;11.302;2022-12-07T04:05:05;8.52;;;6.20;;
40314;SDS011;26021;45.640;11.302;2022-12-07T04:07:31;12.45;;;7.53;;
40314;SDS011;26021;45.640;11.302;2022-12-07T04:09:56;8.63;;;6.78;;
40314;SDS011;26021;45.640;11.302;2022-12-07T04:12:22;8.10;;;6.13;;
40314;SDS011;26021;45.640;11.302;2022-12-07T04:14:48;7.35;;;5.65;;
40314;SDS011;26021;45.640;11.302;2022-12-07T04:17:14;8.57;;;5.28;;
40314;SDS011;26021;45.640;11.302;2022-12-07T04:19:39;7.07;;;5.05;;
40314;SDS011;26021;45.640;11.302;2022-12-07T04:22:05;8.88;;;5.35;;
40314;SDS011;26021;45.640;11.302;2022-12-07T04:24:31;6.30;;;5.22;;
40314;SDS011;26021;45.640;11.302;2022-12-07T04:26:57;8.80;;;6.70;;
40314;SDS011;26021;45.640;11.302;2022-12-07T04:29:22;10.23;;;7.13;;
40314;SDS011;26021;45.640;11.302;2022-12-07T04:31:49;13.00;;;7.30;;
40314;SDS011;26021;45.640;11.302;2022-12-07T04:34:16;10.80;;;7.30;;
40314;SDS011;26021;45.640;11.302;2022-12-07T04:36:42;13.45;;;7.80;;
40314;SDS011;26021;45.640;11.302;2022-12-07T04:39:09;13.35;;;8.57;;
40314;SDS011;26021;45.640;11.302;2022-12-07T04:41:43;11.35;;;7.57;;
40314;SDS011;26021;45.640;11.302;2022-12-07T04:44:09;11.68;;;7.32;;
40314;SDS011;26021;45.640;11.302;2022-12-07T04:46:34;10.57;;;6.75;;
40314;SDS011;26021;45.640;11.302;2022-12-07T04:49:00;9.05;;;7.18;;
40314;SDS011;26021;45.640;11.302;2022-12-07T04:51:26;10.80;;;7.50;;
40314;SDS011;26021;45.640;11.302;2022-12-07T04:53:53;11.90;;;7.75;;
40314;SDS011;26021;45.640;11.302;2022-12-07T04:56:20;9.70;;;7.43;;
40314;SDS011;26021;45.640;11.302;2022-12-07T04:58:46;11.15;;;6.90;;
40314;SDS011;26021;45.640;11.302;2022-12-07T05:01:13;10.45;;;6.80;;
40314;SDS011;26021;45.640;11.302;2022-12-07T05:03:39;11.88;;;7.90;;
40314;SDS011;26021;45.640;11.302;2022-12-07T05:06:05;8.98;;;6.90;;
40314;SDS011;26021;45.640;11.302;2022-12-07T05:08:31;11.70;;;9.63;;
40314;SDS011;26021;45.640;11.302;2022-12-07T05:10:58;11.75;;;9.23;;
40314;SDS011;26021;45.640;11.302;2022-12-07T05:13:24;11.73;;;8.30;;
40314;SDS011;26021;45.640;11.302;2022-12-07T05:15:49;16.00;;;9.82;;
40314;SDS011;26021;45.640;11.302;2022-12-07T05:18:15;14.38;;;9.95;;
40314;SDS011;26021;45.640;11.302;2022-12-07T05:20:41;13.50;;;9.43;;
40314;SDS011;26021;45.640;11.302;2022-12-07T05:23:07;12.43;;;9.30;;
40314;SDS011;26021;45.640;11.302;2022-12-07T05:25:33;10.75;;;8.65;;
40314;SDS011;26021;45.640;11.302;2022-12-07T05:27:58;14.45;;;8.73;;
40314;SDS011;26021;45.640;11.302;2022-12-07T05:30:24;13.13;;;9.07;;
40314;SDS011;26021;45.640;11.302;2022-12-07T05:32:50;14.23;;;8.93;;
40314;SDS011;26021;45.640;11.302;2022-12-07T05:35:16;16.33;;;10.00;;
40314;SDS011;26021;45.640;11.302;2022-12-07T05:37:42;14.25;;;10.07;;
40314;SDS011;26021;45.640;11.302;2022-12-07T05:40:08;15.05;;;10.27;;
40314;SDS011;26021;45.640;11.302;2022-12-07T05:42:34;13.35;;;8.73;;
40314;SDS011;26021;45.640;11.302;2022-12-07T05:45:00;12.95;;;9.38;;
40314;SDS011;26021;45.640;11.302;2022-12-07T05:47:25;15.10;;;10.13;;
40314;SDS011;26021;45.640;11.302;2022-12-07T05:49:51;13.55;;;9.40;;
40314;SDS011;26021;45.640;11.302;2022-12-07T05:52:17;16.42;;;12.35;;
40314;SDS011;26021;45.640;11.302;2022-12-07T05:54:42;36.13;;;19.70;;
40314;SDS011;26021;45.640;11.302;2022-12-07T05:57:08;14.98;;;10.55;;
40314;SDS011;26021;45.640;11.302;2022-12-07T05:59:33;14.05;;;9.23;;
40314;SDS011;26021;45.640;11.302;2022-12-07T06:02:03;11.93;;;8.50;;
40314;SDS011;26021;45.640;11.302;2022-12-07T06:04:32;13.93;;;8.50;;
40314;SDS011;26021;45.640;11.302;2022-12-07T06:07:03;15.90;;;10.77;;
40314;SDS011;26021;45.640;11.302;2022-12-07T06:09:29;14.75;;;10.15;;
40314;SDS011;26021;45.640;11.302;2022-12-07T06:11:55;15.43;;;10.93;;
40314;SDS011;26021;45.640;11.302;2022-12-07T06:14:40;15.05;;;9.82;;
40314;SDS011;26021;45.640;11.302;2022-12-07T06:17:06;13.23;;;9.63;;
40314;SDS011;26021;45.640;11.302;2022-12-07T06:19:31;15.63;;;11.48;;
40314;SDS011;26021;45.640;11.302;2022-12-07T06:21:57;13.35;;;8.90;;
40314;SDS011;26021;45.640;11.302;2022-12-07T06:24:23;11.40;;;8.52;;
40314;SDS011;26021;45.640;11.302;2022-12-07T06:26:50;17.55;;;13.05;;
40314;SDS011;26021;45.640;11.302;2022-12-07T06:29:16;15.82;;;10.90;;
40314;SDS011;26021;45.640;11.302;2022-12-07T06:31:42;13.07;;;9.45;;
40314;SDS011;26021;45.640;11.302;2022-12-07T06:34:10;12.80;;;10.18;;
40314;SDS011;26021;45.640;11.302;2022-12-07T06:36:36;15.27;;;10.40;;
40314;SDS011;26021;45.640;11.302;2022-12-07T06:39:03;12.60;;;10.10;;
40314;SDS011;26021;45.640;11.302;2022-12-07T06:41:29;14.00;;;9.80;;
40314;SDS011;26021;45.640;11.302;2022-12-07T06:43:54;16.88;;;11.18;;
40314;SDS011;26021;45.640;11.302;2022-12-07T06:46:20;16.35;;;10.70;;
40314;SDS011;26021;45.640;11.302;2022-12-07T06:48:45;12.60;;;9.80;;
40314;SDS011;26021;45.640;11.302;2022-12-07T06:51:11;12.95;;;9.35;;
40314;SDS011;26021;45.640;11.302;2022-12-07T06:53:36;15.95;;;11.25;;
40314;SDS011;26021;45.640;11.302;2022-12-07T06:56:03;19.52;;;11.88;;
40314;SDS011;26021;45.640;11.302;2022-12-07T06:58:29;14.88;;;10.90;;
40314;SDS011;26021;45.640;11.302;2022-12-07T07:00:54;16.05;;;11.35;;
40314;SDS011;26021;45.640;11.302;2022-12-07T07:03:20;22.27;;;14.68;;
40314;SDS011;26021;45.640;11.302;2022-12-07T07:05:45;17.65;;;13.27;;
40314;SDS011;26021;45.640;11.302;2022-12-07T07:08:11;15.57;;;11.63;;
40314;SDS011;26021;45.640;11.302;2022-12-07T07:10:37;14.70;;;10.77;;
40314;SDS011;26021;45.640;11.302;2022-12-07T07:13:03;16.17;;;10.77;;
40314;SDS011;26021;45.640;11.302;2022-12-07T07:15:29;15.70;;;11.07;;
40314;SDS011;26021;45.640;11.302;2022-12-07T07:17:55;16.13;;;11.35;;
40314;SDS011;26021;45.640;11.302;2022-12-07T07:20:20;18.83;;;13.02;;
40314;SDS011;26021;45.640;11.302;2022-12-07T07:22:46;18.00;;;13.07;;
40314;SDS011;26021;45.640;11.302;2022-12-07T07:25:11;19.63;;;13.15;;
40314;SDS011;26021;45.640;11.302;2022-12-07T07:27:37;21.80;;;14.07;;
40314;SDS011;26021;45.640;11.302;2022-12-07T07:30:03;19.67;;;14.57;;
40314;SDS011;26021;45.640;11.302;2022-12-07T07:32:29;17.02;;;12.63;;
40314;SDS011;26021;45.640;11.302;2022-12-07T07:34:55;17.83;;;13.40;;
40314;SDS011;26021;45.640;11.302;2022-12-07T07:37:20;23.15;;;15.65;;
40314;SDS011;26021;45.640;11.302;2022-12-07T07:39:45;22.30;;;14.60;;
40314;SDS011;26021;45.640;11.302;2022-12-07T07:42:11;19.23;;;13.10;;
40314;SDS011;26021;45.640;11.302;2022-12-07T07:44:36;16.38;;;12.75;;
40314;SDS011;26021;45.640;11.302;2022-12-07T07:47:03;17.95;;;13.13;;
40314;SDS011;26021;45.640;11.302;2022-12-07T07:49:28;19.08;;;13.27;;
40314;SDS011;26021;45.640;11.302;2022-12-07T07:51:54;18.15;;;12.40;;
40314;SDS011;26021;45.640;11.302;2022-12-07T07:54:19;17.38;;;12.55;;
40314;SDS011;26021;45.640;11.302;2022-12-07T07:56:45;16.85;;;13.05;;
40314;SDS011;26021;45.640;11.302;2022-12-07T07:59:10;17.50;;;11.93;;
40314;SDS011;26021;45.640;11.302;2022-12-07T08:01:35;16.40;;;11.40;;
40314;SDS011;26021;45.640;11.302;2022-12-07T08:04:01;16.00;;;10.55;;
40314;SDS011;26021;45.640;11.302;2022-12-07T08:06:26;15.32;;;11.13;;
40314;SDS011;26021;45.640;11.302;2022-12-07T08:08:52;20.50;;;14.95;;
40314;SDS011;26021;45.640;11.302;2022-12-07T08:11:17;20.23;;;12.82;;
40314;SDS011;26021;45.640;11.302;2022-12-07T08:13:45;15.82;;;11.52;;
40314;SDS011;26021;45.640;11.302;2022-12-07T08:16:14;18.67;;;12.20;;
40314;SDS011;26021;45.640;11.302;2022-12-07T08:18:40;14.50;;;11.43;;
40314;SDS011;26021;45.640;11.302;2022-12-07T08:21:06;15.15;;;11.98;;
40314;SDS011;26021;45.640;11.302;2022-12-07T08:23:35;16.10;;;11.63;;
40314;SDS011;26021;45.640;11.302;2022-12-07T08:26:01;18.77;;;12.20;;
40314;SDS011;26021;45.640;11.302;2022-12-07T08:28:28;15.23;;;11.93;;
40314;SDS011;26021;45.640;11.302;2022-12-07T08:31:04;16.52;;;12.25;;
40314;SDS011;26021;45.640;11.302;2022-12-07T08:33:32;14.50;;;11.13;;
40314;SDS011;26021;45.640;11.302;2022-12-07T08:36:02;16.48;;;11.15;;
40314;SDS011;26021;45.640;11.302;2022-12-07T08:38:29;14.13;;;11.40;;
40314;SDS011;26021;45.640;11.302;2022-12-07T08:40:55;15.60;;;11.40;;
40314;SDS011;26021;45.640;11.302;2022-12-07T08:43:21;15.57;;;11.70;;
40314;SDS011;26021;45.640;11.302;2022-12-07T08:45:47;17.10;;;12.55;;
40314;SDS011;26021;45.640;11.302;2022-12-07T08:48:17;16.05;;;11.05;;
40314;SDS011;26021;45.640;11.302;2022-12-07T08:50:46;16.63;;;13.50;;
40314;SDS011;26021;45.640;11.302;2022-12-07T08:53:13;18.27;;;13.13;;
40314;SDS011;26021;45.640;11.302;2022-12-07T08:55:39;16.45;;;11.93;;
40314;SDS011;26021;45.640;11.302;2022-12-07T08:58:04;16.27;;;11.55;;
40314;SDS011;26021;45.640;11.302;2022-12-07T09:00:30;19.58;;;13.35;;
40314;SDS011;26021;45.640;11.302;2022-12-07T09:02:55;18.33;;;12.70;;
40314;SDS011;26021;45.640;11.302;2022-12-07T09:05:21;40.55;;;28.77;;
40314;SDS011;26021;45.640;11.302;2022-12-07T09:07:48;21.48;;;16.20;;
40314;SDS011;26021;45.640;11.302;2022-12-07T09:10:15;17.50;;;13.23;;
40314;SDS011;26021;45.640;11.302;2022-12-07T09:12:41;18.85;;;14.48;;
40314;SDS011;26021;45.640;11.302;2022-12-07T09:15:06;18.02;;;12.77;;
40314;SDS011;26021;45.640;11.302;2022-12-07T09:17:33;16.83;;;14.50;;
40314;SDS011;26021;45.640;11.302;2022-12-07T09:20:00;18.30;;;13.25;;
40314;SDS011;26021;45.640;11.302;2022-12-07T09:22:28;16.00;;;11.55;;
40314;SDS011;26021;45.640;11.302;2022-12-07T09:24:57;12.70;;;10.80;;
40314;SDS011;26021;45.640;11.302;2022-12-07T09:27:23;12.95;;;10.35;;
40314;SDS011;26021;45.640;11.302;2022-12-07T09:29:49;15.02;;;10.38;;
40314;SDS011;26021;45.640;11.302;2022-12-07T09:32:14;13.30;;;10.35;;
40314;SDS011;26021;45.640;11.302;2022-12-07T09:34:40;11.90;;;8.90;;
40314;SDS011;26021;45.640;11.302;2022-12-07T09:37:05;13.00;;;8.60;;
40314;SDS011;26021;45.640;11.302;2022-12-07T09:39:31;13.13;;;8.20;;
40314;SDS011;26021;45.640;11.302;2022-12-07T09:41:57;11.90;;;8.05;;
40314;SDS011;26021;45.640;11.302;2022-12-07T09:44:24;9.25;;;7.97;;
40314;SDS011;26021;45.640;11.302;2022-12-07T09:46:51;10.80;;;8.90;;
40314;SDS011;26021;45.640;11.302;2022-12-07T09:49:21;13.45;;;10.57;;
40314;SDS011;26021;45.640;11.302;2022-12-07T09:51:59;12.73;;;9.40;;
40314;SDS011;26021;45.640;11.302;2022-12-07T09:54:43;14.68;;;9.20;;
40314;SDS011;26021;45.640;11.302;2022-12-07T09:57:12;10.90;;;9.40;;
40314;SDS011;26021;45.640;11.302;2022-12-07T09:59:38;14.10;;;9.95;;
40314;SDS011;26021;45.640;11.302;2022-12-07T10:04:55;12.00;;;9.32;;
40314;SDS011;26021;45.640;11.302;2022-12-07T10:07:23;10.95;;;9.40;;
40314;SDS011;26021;45.640;11.302;2022-12-07T10:09:48;12.52;;;9.55;;
40314;SDS011;26021;45.640;11.302;2022-12-07T10:12:14;14.25;;;11.05;;
40314;SDS011;26021;45.640;11.302;2022-12-07T10:14:48;12.80;;;8.73;;
40314;SDS011;26021;45.640;11.302;2022-12-07T10:20:07;16.20;;;12.50;;
40314;SDS011;26021;45.640;11.302;2022-12-07T10:23:03;11.07;;;9.38;;
40314;SDS011;26021;45.640;11.302;2022-12-07T10:25:32;9.10;;;8.13;;
40314;SDS011;26021;45.640;11.302;2022-12-07T10:30:45;12.38;;;8.85;;
40314;SDS011;26021;45.640;11.302;2022-12-07T10:33:32;12.68;;;9.68;;
40314;SDS011;26021;45.640;11.302;2022-12-07T10:36:22;9.15;;;8.27;;
40314;SDS011;26021;45.640;11.302;2022-12-07T10:39:09;10.38;;;8.10;;
40314;SDS011;26021;45.640;11.302;2022-12-07T10:44:29;10.77;;;6.40;;
40314;SDS011;26021;45.640;11.302;2022-12-07T10:55:25;7.55;;;6.22;;
40314;SDS011;26021;45.640;11.302;2022-12-07T11:03:30;20.77;;;9.32;;
40314;SDS011;26021;45.640;11.302;2022-12-07T11:11:19;7.68;;;5.93;;
40314;SDS011;26021;45.640;11.302;2022-12-07T11:16:56;5.93;;;5.32;;
40314;SDS011;26021;45.640;11.302;2022-12-07T11:19:41;6.30;;;5.55;;
40314;SDS011;26021;45.640;11.302;2022-12-07T11:22:13;8.23;;;6.40;;
